sensor_id;sensor_type;location;lat;lon;timestamp;pressure;altitude;pressure_sealevel;temperature;humidity
52469;BME280;38381;53.688;10.776;2023-11-21T00:01:18;100724.47;;;6.94;97.37
52469;BME280;38381;53.688;10.776;2023-11-21T00:06:19;100730.22;;;6.81;97.39
52469;BME280;38381;53.688;10.776;2023-11-21T00:11:20;100731.00;;;6.78;96.64
52469;BME280;38381;53.688;10.776;2023-11-21T00:16:21;100729.50;;;6.88;96.71
52469;BME280;38381;53.688;10.776;2023-11-21T00:21:22;100741.31;;;6.77;96.87
52469;BME280;38381;53.688;10.776;2023-11-21T00:26:23;100747.91;;;6.65;96.54
52469;BME280;38381;53.688;10.776;2023-11-21T00:31:24;100749.72;;;6.70;96.73
52469;BME280;38381;53.688;10.776;2023-11-21T00:36:24;100751.41;;;6.68;95.55
52469;BME280;38381;53.688;10.776;2023-11-21T00:41:26;100753.78;;;6.58;94.94
52469;BME280;38381;53.688;10.776;2023-11-21T00:46:27;100759.81;;;6.59;94.02
52469;BME280;38381;53.688;10.776;2023-11-21T00:51:29;100761.63;;;6.63;93.96
52469;BME280;38381;53.688;10.776;2023-11-21T00:56:30;100775.22;;;6.57;94.24
52469;BME280;38381;53.688;10.776;2023-11-21T01:01:30;100784.44;;;6.48;93.89
52469;BME280;38381;53.688;10.776;2023-11-21T01:06:31;100788.91;;;6.55;94.75
52469;BME280;38381;53.688;10.776;2023-11-21T01:11:31;100799.28;;;6.56;94.98
52469;BME280;38381;53.688;10.776;2023-11-21T01:16:33;100804.41;;;6.56;95.94
52469;BME280;38381;53.688;10.776;2023-11-21T01:21:33;100813.91;;;6.59;95.68
52469;BME280;38381;53.688;10.776;2023-11-21T01:26:34;100818.16;;;6.57;95.81
52469;BME280;38381;53.688;10.776;2023-11-21T01:31:34;100804.41;;;6.56;95.02
52469;BME280;38381;53.688;10.776;2023-11-21T01:36:35;100824.13;;;6.54;94.98
52469;BME280;38381;53.688;10.776;2023-11-21T01:41:35;100823.31;;;6.57;94.16
52469;BME280;38381;53.688;10.776;2023-11-21T01:46:36;100826.56;;;6.50;93.48
52469;BME280;38381;53.688;10.776;2023-11-21T01:51:37;100824.75;;;6.45;94.37
52469;BME280;38381;53.688;10.776;2023-11-21T01:56:38;100822.97;;;6.43;93.87
52469;BME280;38381;53.688;10.776;2023-11-21T02:01:39;100845.34;;;6.44;94.06
52469;BME280;38381;53.688;10.776;2023-11-21T02:06:39;100852.94;;;6.38;94.56
52469;BME280;38381;53.688;10.776;2023-11-21T02:11:40;100854.75;;;6.43;94.51
52469;BME280;38381;53.688;10.776;2023-11-21T02:16:40;100866.88;;;6.46;94.49
52469;BME280;38381;53.688;10.776;2023-11-21T02:21:41;100869.31;;;6.41;94.22
52469;BME280;38381;53.688;10.776;2023-11-21T02:26:43;100869.41;;;6.44;93.95
52469;BME280;38381;53.688;10.776;2023-11-21T02:31:43;100886.53;;;6.42;94.95
52469;BME280;38381;53.688;10.776;2023-11-21T02:36:49;100884.75;;;6.40;94.48
52469;BME280;38381;53.688;10.776;2023-11-21T02:41:50;100900.06;;;6.35;94.22
52469;BME280;38381;53.688;10.776;2023-11-21T02:46:50;100900.97;;;6.36;94.15
52469;BME280;38381;53.688;10.776;2023-11-21T02:51:51;100900.97;;;6.36;94.06
52469;BME280;38381;53.688;10.776;2023-11-21T02:56:51;100902.56;;;6.32;94.58
52469;BME280;38381;53.688;10.776;2023-11-21T03:01:51;100919.00;;;6.37;94.40
52469;BME280;38381;53.688;10.776;2023-11-21T03:06:52;100905.34;;;6.40;94.03
52469;BME280;38381;53.688;10.776;2023-11-21T03:11:53;100905.16;;;6.32;94.49
52469;BME280;38381;53.688;10.776;2023-11-21T03:16:54;100915.41;;;6.31;94.58
52469;BME280;38381;53.688;10.776;2023-11-21T03:21:54;100916.97;;;6.24;94.49
52469;BME280;38381;53.688;10.776;2023-11-21T03:26:54;100920.41;;;6.24;94.11
52469;BME280;38381;53.688;10.776;2023-11-21T03:31:55;100923.50;;;6.13;94.97
52469;BME280;38381;53.688;10.776;2023-11-21T03:36:56;100934.06;;;6.22;94.84
52469;BME280;38381;53.688;10.776;2023-11-21T03:41:56;100935.78;;;6.21;95.20
52469;BME280;38381;53.688;10.776;2023-11-21T03:46:57;100946.03;;;6.20;95.48
52469;BME280;38381;53.688;10.776;2023-11-21T03:51:57;100956.44;;;6.24;95.40
52469;BME280;38381;53.688;10.776;2023-11-21T03:56:57;100962.28;;;6.17;95.18
52469;BME280;38381;53.688;10.776;2023-11-21T04:01:58;100976.94;;;6.20;95.08
52469;BME280;38381;53.688;10.776;2023-11-21T04:06:58;100976.81;;;6.15;95.36
52469;BME280;38381;53.688;10.776;2023-11-21T04:11:59;100978.59;;;6.18;94.80
52469;BME280;38381;53.688;10.776;2023-11-21T04:16:59;100983.53;;;6.10;94.77
52469;BME280;38381;53.688;10.776;2023-11-21T04:21:59;100996.66;;;6.19;95.22
52469;BME280;38381;53.688;10.776;2023-11-21T04:27:00;101012.81;;;6.14;95.22
52469;BME280;38381;53.688;10.776;2023-11-21T04:32:01;101029.06;;;6.13;95.02
52469;BME280;38381;53.688;10.776;2023-11-21T04:37:03;101028.25;;;6.14;94.83
52469;BME280;38381;53.688;10.776;2023-11-21T04:42:04;101026.44;;;6.10;95.01
52469;BME280;38381;53.688;10.776;2023-11-21T04:47:04;101030.78;;;6.12;94.81
52469;BME280;38381;53.688;10.776;2023-11-21T04:52:05;101038.44;;;6.09;94.43
52469;BME280;38381;53.688;10.776;2023-11-21T04:57:05;101040.13;;;6.09;94.19
52469;BME280;38381;53.688;10.776;2023-11-21T05:02:07;101043.66;;;6.12;93.84
52469;BME280;38381;53.688;10.776;2023-11-21T05:07:08;101043.59;;;6.09;94.12
52469;BME280;38381;53.688;10.776;2023-11-21T05:12:08;101063.41;;;6.12;93.71
52469;BME280;38381;53.688;10.776;2023-11-21T05:17:09;101065.28;;;6.17;93.76
52469;BME280;38381;53.688;10.776;2023-11-21T05:22:09;101077.94;;;6.10;92.96
52469;BME280;38381;53.688;10.776;2023-11-21T05:27:11;101089.19;;;6.13;93.46
52469;BME280;38381;53.688;10.776;2023-11-21T05:32:13;101087.53;;;6.15;93.36
52469;BME280;38381;53.688;10.776;2023-11-21T05:37:13;101084.81;;;6.11;94.00
52469;BME280;38381;53.688;10.776;2023-11-21T05:42:14;101085.72;;;6.13;93.60
52469;BME280;38381;53.688;10.776;2023-11-21T05:47:14;101096.19;;;6.17;93.83
52469;BME280;38381;53.688;10.776;2023-11-21T05:52:15;101106.31;;;6.11;93.00
52469;BME280;38381;53.688;10.776;2023-11-21T05:57:15;101112.13;;;6.06;93.36
52469;BME280;38381;53.688;10.776;2023-11-21T06:02:16;101113.13;;;6.09;93.23
52469;BME280;38381;53.688;10.776;2023-11-21T06:07:16;101117.56;;;6.15;93.20
52469;BME280;38381;53.688;10.776;2023-11-21T06:12:16;101131.28;;;6.14;92.76
52469;BME280;38381;53.688;10.776;2023-11-21T06:17:17;101144.97;;;6.13;92.69
52469;BME280;38381;53.688;10.776;2023-11-21T06:22:18;101145.56;;;6.04;92.38
52469;BME280;38381;53.688;10.776;2023-11-21T06:27:18;101164.56;;;6.08;92.46
52469;BME280;38381;53.688;10.776;2023-11-21T06:32:18;101168.91;;;6.10;93.22
52469;BME280;38381;53.688;10.776;2023-11-21T06:37:20;101175.66;;;6.05;93.03
52469;BME280;38381;53.688;10.776;2023-11-21T06:42:24;101195.97;;;5.97;92.51
52469;BME280;38381;53.688;10.776;2023-11-21T06:47:25;101201.06;;;5.96;91.49
52469;BME280;38381;53.688;10.776;2023-11-21T06:52:26;101207.69;;;5.89;91.84
52469;BME280;38381;53.688;10.776;2023-11-21T06:57:26;101215.72;;;5.97;92.46
52469;BME280;38381;53.688;10.776;2023-11-21T07:02:27;101229.50;;;5.99;92.58
52469;BME280;38381;53.688;10.776;2023-11-21T07:07:28;101230.16;;;5.93;92.54
52469;BME280;38381;53.688;10.776;2023-11-21T07:12:32;101231.25;;;6.00;92.60
52469;BME280;38381;53.688;10.776;2023-11-21T07:17:32;101241.47;;;5.97;92.03
52469;BME280;38381;53.688;10.776;2023-11-21T07:22:32;101242.09;;;5.91;92.32
52469;BME280;38381;53.688;10.776;2023-11-21T07:27:33;101249.88;;;5.93;92.50
52469;BME280;38381;53.688;10.776;2023-11-21T07:32:35;101269.38;;;5.86;92.74
52469;BME280;38381;53.688;10.776;2023-11-21T07:37:36;101281.56;;;5.92;92.83
52469;BME280;38381;53.688;10.776;2023-11-21T07:42:37;101283.34;;;5.93;92.49
52469;BME280;38381;53.688;10.776;2023-11-21T07:47:37;101285.78;;;5.90;92.10
52469;BME280;38381;53.688;10.776;2023-11-21T07:52:39;101292.81;;;5.94;91.72
52469;BME280;38381;53.688;10.776;2023-11-21T07:57:40;101296.22;;;5.93;91.64
52469;BME280;38381;53.688;10.776;2023-11-21T08:02:40;101303.00;;;5.91;90.86
52469;BME280;38381;53.688;10.776;2023-11-21T08:07:46;101312.63;;;5.95;90.84
52469;BME280;38381;53.688;10.776;2023-11-21T08:12:46;101312.00;;;6.02;91.44
52469;BME280;38381;53.688;10.776;2023-11-21T08:17:48;101314.78;;;6.08;91.09
52469;BME280;38381;53.688;10.776;2023-11-21T08:22:48;101326.72;;;6.06;91.40
52469;BME280;38381;53.688;10.776;2023-11-21T08:27:49;101338.00;;;6.10;90.85
52469;BME280;38381;53.688;10.776;2023-11-21T08:32:49;101337.84;;;6.05;90.15
52469;BME280;38381;53.688;10.776;2023-11-21T08:37:52;101346.53;;;6.09;89.69
52469;BME280;38381;53.688;10.776;2023-11-21T08:42:56;101353.25;;;6.03;89.30
52469;BME280;38381;53.688;10.776;2023-11-21T08:47:58;101366.53;;;6.16;89.17
52469;BME280;38381;53.688;10.776;2023-11-21T08:52:59;101367.03;;;6.31;89.96
52469;BME280;38381;53.688;10.776;2023-11-21T08:57:59;101377.47;;;6.34;89.46
52469;BME280;38381;53.688;10.776;2023-11-21T09:03:01;101381.22;;;6.18;89.13
52469;BME280;38381;53.688;10.776;2023-11-21T09:08:02;101390.06;;;6.27;89.26
52469;BME280;38381;53.688;10.776;2023-11-21T09:13:02;101401.38;;;6.30;88.25
52469;BME280;38381;53.688;10.776;2023-11-21T09:18:03;101409.88;;;6.28;88.44
52469;BME280;38381;53.688;10.776;2023-11-21T09:23:05;101420.19;;;6.28;88.54
52469;BME280;38381;53.688;10.776;2023-11-21T09:28:05;101431.50;;;6.33;88.24
52469;BME280;38381;53.688;10.776;2023-11-21T09:33:09;101443.56;;;6.34;87.65
52469;BME280;38381;53.688;10.776;2023-11-21T09:38:10;101450.53;;;6.36;86.77
52469;BME280;38381;53.688;10.776;2023-11-21T09:43:17;101464.56;;;6.20;86.47
52469;BME280;38381;53.688;10.776;2023-11-21T09:48:19;101464.91;;;6.30;85.69
52469;BME280;38381;53.688;10.776;2023-11-21T09:53:21;101461.69;;;6.37;85.51
52469;BME280;38381;53.688;10.776;2023-11-21T09:58:24;101470.72;;;6.24;84.58
52469;BME280;38381;53.688;10.776;2023-11-21T10:03:25;101472.06;;;6.38;84.78
52469;BME280;38381;53.688;10.776;2023-11-21T10:08:25;101481.59;;;6.41;84.53
52469;BME280;38381;53.688;10.776;2023-11-21T10:13:28;101484.88;;;6.37;84.52
52469;BME280;38381;53.688;10.776;2023-11-21T10:18:32;101482.97;;;6.31;83.28
52469;BME280;38381;53.688;10.776;2023-11-21T10:23:34;101486.88;;;6.44;82.82
52469;BME280;38381;53.688;10.776;2023-11-21T10:28:37;101486.59;;;6.36;83.51
52469;BME280;38381;53.688;10.776;2023-11-21T10:33:39;101492.84;;;6.43;83.16
52469;BME280;38381;53.688;10.776;2023-11-21T10:38:42;101491.31;;;6.48;83.44
52469;BME280;38381;53.688;10.776;2023-11-21T10:43:44;101492.13;;;6.47;84.16
52469;BME280;38381;53.688;10.776;2023-11-21T10:48:45;101486.38;;;6.54;84.64
52469;BME280;38381;53.688;10.776;2023-11-21T10:53:46;101498.41;;;6.55;84.41
52469;BME280;38381;53.688;10.776;2023-11-21T10:58:50;101509.44;;;6.51;82.90
52469;BME280;38381;53.688;10.776;2023-11-21T11:03:54;101511.91;;;6.48;83.52
52469;BME280;38381;53.688;10.776;2023-11-21T11:08:55;101506.28;;;6.60;82.83
52469;BME280;38381;53.688;10.776;2023-11-21T11:13:56;101511.28;;;6.55;82.68
52469;BME280;38381;53.688;10.776;2023-11-21T11:18:57;101514.59;;;6.51;82.79
52469;BME280;38381;53.688;10.776;2023-11-21T11:29:34;101547.72;;;6.40;84.54
52469;BME280;38381;53.688;10.776;2023-11-21T11:34:41;101547.00;;;6.44;83.18
52469;BME280;38381;53.688;10.776;2023-11-21T11:39:44;101549.16;;;6.56;83.43
52469;BME280;38381;53.688;10.776;2023-11-21T11:44:47;101540.63;;;6.59;83.34
52469;BME280;38381;53.688;10.776;2023-11-21T11:50:06;101535.28;;;6.53;83.30
52469;BME280;38381;53.688;10.776;2023-11-21T11:55:24;101546.50;;;6.55;83.04
52469;BME280;38381;53.688;10.776;2023-11-21T12:05:32;101550.44;;;6.45;81.86
52469;BME280;38381;53.688;10.776;2023-11-21T12:10:37;101560.25;;;6.55;82.01
52469;BME280;38381;53.688;10.776;2023-11-21T12:15:38;101565.47;;;6.57;81.93
52469;BME280;38381;53.688;10.776;2023-11-21T12:20:40;101571.50;;;6.57;82.77
52469;BME280;38381;53.688;10.776;2023-11-21T12:25:42;101577.53;;;6.58;82.87
52469;BME280;38381;53.688;10.776;2023-11-21T12:30:43;101576.94;;;6.65;82.79
52469;BME280;38381;53.688;10.776;2023-11-21T12:35:44;101586.25;;;6.61;83.09
52469;BME280;38381;53.688;10.776;2023-11-21T12:40:44;101598.28;;;6.61;81.19
52469;BME280;38381;53.688;10.776;2023-11-21T12:45:45;101606.06;;;6.62;81.00
52469;BME280;38381;53.688;10.776;2023-11-21T12:50:45;101623.53;;;6.47;81.42
52469;BME280;38381;53.688;10.776;2023-11-21T12:55:49;101633.31;;;6.33;80.92
52469;BME280;38381;53.688;10.776;2023-11-21T13:00:50;101631.25;;;6.47;80.90
52469;BME280;38381;53.688;10.776;2023-11-21T13:05:53;101633.25;;;6.54;80.64
52469;BME280;38381;53.688;10.776;2023-11-21T13:10:58;101649.44;;;6.50;79.06
52469;BME280;38381;53.688;10.776;2023-11-21T13:16:02;101656.94;;;6.21;79.13
52469;BME280;38381;53.688;10.776;2023-11-21T13:21:08;101661.66;;;6.33;79.39
52469;BME280;38381;53.688;10.776;2023-11-21T13:26:17;101666.00;;;6.34;79.62
52469;BME280;38381;53.688;10.776;2023-11-21T13:31:20;101668.56;;;6.34;79.89
52469;BME280;38381;53.688;10.776;2023-11-21T13:36:23;101678.59;;;6.27;78.36
52469;BME280;38381;53.688;10.776;2023-11-21T13:41:24;101680.69;;;6.37;79.63
52469;BME280;38381;53.688;10.776;2023-11-21T13:46:30;101678.72;;;6.30;79.25
52469;BME280;38381;53.688;10.776;2023-11-21T13:51:37;101678.47;;;6.23;77.61
52469;BME280;38381;53.688;10.776;2023-11-21T13:56:46;101681.31;;;6.31;78.69
52469;BME280;38381;53.688;10.776;2023-11-21T14:01:47;101682.88;;;6.26;78.33
52469;BME280;38381;53.688;10.776;2023-11-21T14:06:53;101693.94;;;6.23;77.08
52469;BME280;38381;53.688;10.776;2023-11-21T14:11:55;101699.97;;;6.24;78.15
52469;BME280;38381;53.688;10.776;2023-11-21T14:16:57;101714.53;;;6.23;79.24
52469;BME280;38381;53.688;10.776;2023-11-21T14:21:59;101733.31;;;6.21;80.26
52469;BME280;38381;53.688;10.776;2023-11-21T14:26:59;101757.66;;;5.87;81.62
52469;BME280;38381;53.688;10.776;2023-11-21T14:32:00;101757.44;;;5.61;81.88
52469;BME280;38381;53.688;10.776;2023-11-21T14:37:00;101750.88;;;5.49;83.98
52469;BME280;38381;53.688;10.776;2023-11-21T14:42:03;101753.53;;;5.50;83.00
52469;BME280;38381;53.688;10.776;2023-11-21T14:47:04;101767.56;;;5.37;82.57
52469;BME280;38381;53.688;10.776;2023-11-21T14:52:12;101784.16;;;5.44;82.79
52469;BME280;38381;53.688;10.776;2023-11-21T14:57:33;101785.00;;;5.44;83.67
52469;BME280;38381;53.688;10.776;2023-11-21T15:02:34;101797.75;;;5.41;83.43
52469;BME280;38381;53.688;10.776;2023-11-21T15:07:50;101798.16;;;5.31;83.71
52469;BME280;38381;53.688;10.776;2023-11-21T15:12:52;101800.38;;;5.23;83.15
52469;BME280;38381;53.688;10.776;2023-11-21T15:17:52;101802.13;;;5.24;83.37
52469;BME280;38381;53.688;10.776;2023-11-21T15:22:53;101817.38;;;5.39;84.09
52469;BME280;38381;53.688;10.776;2023-11-21T15:27:53;101835.91;;;5.32;83.30
52469;BME280;38381;53.688;10.776;2023-11-21T15:32:53;101837.06;;;5.39;84.29
52469;BME280;38381;53.688;10.776;2023-11-21T15:37:54;101842.88;;;5.35;83.92
52469;BME280;38381;53.688;10.776;2023-11-21T15:42:58;101860.88;;;5.35;84.46
52469;BME280;38381;53.688;10.776;2023-11-21T15:47:58;101856.66;;;5.35;84.53
52469;BME280;38381;53.688;10.776;2023-11-21T15:53:00;101877.06;;;5.32;84.20
52469;BME280;38381;53.688;10.776;2023-11-21T15:58:01;101880.84;;;5.21;84.73
52469;BME280;38381;53.688;10.776;2023-11-21T16:03:04;101882.47;;;5.19;85.12
52469;BME280;38381;53.688;10.776;2023-11-21T16:08:05;101890.56;;;5.09;84.77
52469;BME280;38381;53.688;10.776;2023-11-21T16:13:06;101902.22;;;5.20;84.99
52469;BME280;38381;53.688;10.776;2023-11-21T16:18:08;101918.03;;;5.10;84.96
52469;BME280;38381;53.688;10.776;2023-11-21T16:23:09;101924.94;;;5.11;85.41
52469;BME280;38381;53.688;10.776;2023-11-21T16:28:09;101941.91;;;5.07;85.15
52469;BME280;38381;53.688;10.776;2023-11-21T16:33:09;101954.19;;;5.13;85.08
52469;BME280;38381;53.688;10.776;2023-11-21T16:38:11;101959.84;;;5.06;84.85
52469;BME280;38381;53.688;10.776;2023-11-21T16:43:12;101974.81;;;5.14;84.90
52469;BME280;38381;53.688;10.776;2023-11-21T16:48:13;101975.13;;;5.02;84.72
52469;BME280;38381;53.688;10.776;2023-11-21T16:53:13;101974.53;;;5.08;85.02
52469;BME280;38381;53.688;10.776;2023-11-21T16:58:14;101991.06;;;5.13;84.64
52469;BME280;38381;53.688;10.776;2023-11-21T17:03:16;101988.94;;;5.04;83.77
52469;BME280;38381;53.688;10.776;2023-11-21T17:08:16;102001.94;;;5.08;84.05
52469;BME280;38381;53.688;10.776;2023-11-21T17:13:17;102018.66;;;4.99;83.40
52469;BME280;38381;53.688;10.776;2023-11-21T17:18:18;102034.84;;;4.97;83.44
52469;BME280;38381;53.688;10.776;2023-11-21T17:23:18;102038.75;;;5.07;84.56
52469;BME280;38381;53.688;10.776;2023-11-21T17:28:19;102045.81;;;5.11;83.75
52469;BME280;38381;53.688;10.776;2023-11-21T17:33:19;102051.53;;;5.05;82.82
52469;BME280;38381;53.688;10.776;2023-11-21T17:38:19;102055.94;;;5.08;84.21
52469;BME280;38381;53.688;10.776;2023-11-21T17:43:20;102057.22;;;4.99;83.62
52469;BME280;38381;53.688;10.776;2023-11-21T17:48:21;102061.41;;;4.97;83.30
52469;BME280;38381;53.688;10.776;2023-11-21T17:53:22;102063.25;;;5.00;83.69
52469;BME280;38381;53.688;10.776;2023-11-21T17:58:23;102067.69;;;5.02;84.10
52469;BME280;38381;53.688;10.776;2023-11-21T18:03:23;102079.94;;;5.08;84.63
52469;BME280;38381;53.688;10.776;2023-11-21T18:08:23;102091.06;;;5.07;85.28
52469;BME280;38381;53.688;10.776;2023-11-21T18:13:24;102103.50;;;4.99;84.35
52469;BME280;38381;53.688;10.776;2023-11-21T18:18:24;102111.56;;;4.89;84.35
52469;BME280;38381;53.688;10.776;2023-11-21T18:23:27;102122.09;;;4.77;84.66
52469;BME280;38381;53.688;10.776;2023-11-21T18:28:28;102124.91;;;4.82;84.54
52469;BME280;38381;53.688;10.776;2023-11-21T18:33:29;102136.47;;;4.90;84.55
52469;BME280;38381;53.688;10.776;2023-11-21T18:38:29;102151.00;;;4.90;85.26
52469;BME280;38381;53.688;10.776;2023-11-21T18:43:30;102158.31;;;4.82;84.87
52469;BME280;38381;53.688;10.776;2023-11-21T18:48:30;102156.22;;;4.91;85.46
52469;BME280;38381;53.688;10.776;2023-11-21T18:53:30;102172.59;;;4.77;84.92
52469;BME280;38381;53.688;10.776;2023-11-21T18:58:34;102174.84;;;4.71;84.92
52469;BME280;38381;53.688;10.776;2023-11-21T19:03:36;102186.75;;;4.69;84.79
52469;BME280;38381;53.688;10.776;2023-11-21T19:08:36;102195.66;;;4.75;85.51
52469;BME280;38381;53.688;10.776;2023-11-21T19:13:37;102201.09;;;4.65;85.31
52469;BME280;38381;53.688;10.776;2023-11-21T19:18:37;102203.13;;;4.71;84.36
52469;BME280;38381;53.688;10.776;2023-11-21T19:23:38;102218.13;;;4.63;84.02
52469;BME280;38381;53.688;10.776;2023-11-21T19:28:38;102226.88;;;4.67;83.71
52469;BME280;38381;53.688;10.776;2023-11-21T19:33:39;102232.09;;;4.52;83.75
52469;BME280;38381;53.688;10.776;2023-11-21T19:38:39;102246.28;;;4.45;83.58
52469;BME280;38381;53.688;10.776;2023-11-21T19:43:41;102239.56;;;4.47;83.48
52469;BME280;38381;53.688;10.776;2023-11-21T19:48:42;102245.94;;;4.39;83.90
52469;BME280;38381;53.688;10.776;2023-11-21T19:53:43;102253.28;;;4.48;84.63
52469;BME280;38381;53.688;10.776;2023-11-21T19:58:43;102253.13;;;4.30;84.78
52469;BME280;38381;53.688;10.776;2023-11-21T20:03:44;102263.16;;;4.25;84.93
52469;BME280;38381;53.688;10.776;2023-11-21T20:08:44;102271.56;;;4.22;84.33
52469;BME280;38381;53.688;10.776;2023-11-21T20:13:51;102281.81;;;4.08;84.23
52469;BME280;38381;53.688;10.776;2023-11-21T20:18:59;102290.97;;;4.02;84.35
52469;BME280;38381;53.688;10.776;2023-11-21T20:23:59;102292.53;;;4.15;84.78
52469;BME280;38381;53.688;10.776;2023-11-21T20:29:04;102297.06;;;4.05;84.65
52469;BME280;38381;53.688;10.776;2023-11-21T20:34:05;102301.41;;;3.91;84.66
52469;BME280;38381;53.688;10.776;2023-11-21T20:39:06;102313.25;;;4.03;84.95
52469;BME280;38381;53.688;10.776;2023-11-21T20:44:06;102319.09;;;4.16;85.28
52469;BME280;38381;53.688;10.776;2023-11-21T20:49:14;102312.38;;;4.18;84.93
52469;BME280;38381;53.688;10.776;2023-11-21T20:54:15;102310.97;;;4.08;84.34
52469;BME280;38381;53.688;10.776;2023-11-21T20:59:15;102327.88;;;4.05;85.19
52469;BME280;38381;53.688;10.776;2023-11-21T21:04:15;102336.66;;;4.08;85.17
52469;BME280;38381;53.688;10.776;2023-11-21T21:09:18;102347.97;;;3.97;84.97
52469;BME280;38381;53.688;10.776;2023-11-21T21:14:18;102351.94;;;3.92;85.09
52469;BME280;38381;53.688;10.776;2023-11-21T21:19:19;102348.13;;;3.85;84.57
52469;BME280;38381;53.688;10.776;2023-11-21T21:24:19;102368.66;;;3.85;84.16
52469;BME280;38381;53.688;10.776;2023-11-21T21:29:19;102385.72;;;3.85;84.63
52469;BME280;38381;53.688;10.776;2023-11-21T21:34:21;102387.56;;;3.72;84.54
52469;BME280;38381;53.688;10.776;2023-11-21T21:39:21;102389.34;;;3.73;84.78
52469;BME280;38381;53.688;10.776;2023-11-21T21:44:22;102403.75;;;3.71;85.01
52469;BME280;38381;53.688;10.776;2023-11-21T21:49:22;102402.78;;;3.69;85.09
52469;BME280;38381;53.688;10.776;2023-11-21T21:54:23;102405.75;;;3.62;84.88
52469;BME280;38381;53.688;10.776;2023-11-21T21:59:24;102411.31;;;3.55;84.27
52469;BME280;38381;53.688;10.776;2023-11-21T22:04:25;102401.34;;;3.46;83.96
52469;BME280;38381;53.688;10.776;2023-11-21T22:09:25;102411.16;;;3.38;84.21
52469;BME280;38381;53.688;10.776;2023-11-21T22:14:25;102411.44;;;3.30;83.62
52469;BME280;38381;53.688;10.776;2023-11-21T22:19:26;102420.25;;;3.20;83.79
52469;BME280;38381;53.688;10.776;2023-11-21T22:24:26;102411.88;;;3.09;83.68
52469;BME280;38381;53.688;10.776;2023-11-21T22:29:28;102429.41;;;3.03;83.74
52469;BME280;38381;53.688;10.776;2023-11-21T22:34:28;102424.41;;;2.91;83.58
52469;BME280;38381;53.688;10.776;2023-11-21T22:39:28;102420.16;;;2.78;83.80
52469;BME280;38381;53.688;10.776;2023-11-21T22:44:29;102422.91;;;2.68;84.54
52469;BME280;38381;53.688;10.776;2023-11-21T22:49:29;102427.34;;;2.57;84.36
52469;BME280;38381;53.688;10.776;2023-11-21T22:54:29;102435.41;;;2.50;84.19
52469;BME280;38381;53.688;10.776;2023-11-21T22:59:30;102443.56;;;2.45;84.12
52469;BME280;38381;53.688;10.776;2023-11-21T23:04:30;102439.72;;;2.38;84.46
52469;BME280;38381;53.688;10.776;2023-11-21T23:09:32;102439.63;;;2.36;84.00
52469;BME280;38381;53.688;10.776;2023-11-21T23:14:32;102435.06;;;2.32;84.28
52469;BME280;38381;53.688;10.776;2023-11-21T23:19:33;102443.22;;;2.27;84.18
52469;BME280;38381;53.688;10.776;2023-11-21T23:24:33;102436.41;;;2.14;84.61
52469;BME280;38381;53.688;10.776;2023-11-21T23:29:33;102441.56;;;2.02;84.61
52469;BME280;38381;53.688;10.776;2023-11-21T23:34:35;102447.47;;;2.01;85.28
52469;BME280;38381;53.688;10.776;2023-11-21T23:39:35;102461.00;;;1.87;85.80
52469;BME280;38381;53.688;10.776;2023-11-21T23:44:36;102458.34;;;1.73;86.02
52469;BME280;38381;53.688;10.776;2023-11-21T23:49:36;102475.81;;;1.67;86.17
52469;BME280;38381;53.688;10.776;2023-11-21T23:54:37;102490.63;;;1.59;86.04
52469;BME280;38381;53.688;10.776;2023-11-21T23:59:37;102499.53;;;1.53;86.11
